sensor_id;sensor_type;location;lat;lon;timestamp;temperature;humidity
16066;DHT22;8137;48.952;8.970;2023-09-30T00:01:14;16.30;99.90
16066;DHT22;8137;48.952;8.970;2023-09-30T00:03:40;16.20;99.90
16066;DHT22;8137;48.952;8.970;2023-09-30T00:06:06;16.10;99.90
16066;DHT22;8137;48.952;8.970;2023-09-30T00:08:32;16.00;99.90
16066;DHT22;8137;48.952;8.970;2023-09-30T00:10:57;15.90;99.90
16066;DHT22;8137;48.952;8.970;2023-09-30T00:13:23;15.80;99.90
16066;DHT22;8137;48.952;8.970;2023-09-30T00:15:49;15.70;99.90
16066;DHT22;8137;48.952;8.970;2023-09-30T00:18:14;15.60;99.90
16066;DHT22;8137;48.952;8.970;2023-09-30T00:20:40;15.60;99.90
16066;DHT22;8137;48.952;8.970;2023-09-30T00:23:06;15.60;99.90
16066;DHT22;8137;48.952;8.970;2023-09-30T00:25:32;15.60;99.90
16066;DHT22;8137;48.952;8.970;2023-09-30T00:27:58;15.60;99.90
16066;DHT22;8137;48.952;8.970;2023-09-30T00:30:24;15.50;99.90
16066;DHT22;8137;48.952;8.970;2023-09-30T00:32:49;15.50;99.90
16066;DHT22;8137;48.952;8.970;2023-09-30T00:35:15;15.40;99.90
16066;DHT22;8137;48.952;8.970;2023-09-30T00:37:41;15.40;99.90
16066;DHT22;8137;48.952;8.970;2023-09-30T00:40:08;15.40;99.90
16066;DHT22;8137;48.952;8.970;2023-09-30T00:42:40;15.40;99.90
16066;DHT22;8137;48.952;8.970;2023-09-30T00:45:06;15.40;99.90
16066;DHT22;8137;48.952;8.970;2023-09-30T00:47:34;15.30;99.90
16066;DHT22;8137;48.952;8.970;2023-09-30T00:50:01;15.30;99.90
16066;DHT22;8137;48.952;8.970;2023-09-30T00:52:30;15.30;99.90
16066;DHT22;8137;48.952;8.970;2023-09-30T00:54:57;15.30;99.90
16066;DHT22;8137;48.952;8.970;2023-09-30T00:57:23;15.40;99.90
16066;DHT22;8137;48.952;8.970;2023-09-30T00:59:50;15.40;99.90
16066;DHT22;8137;48.952;8.970;2023-09-30T01:02:17;15.50;99.90
16066;DHT22;8137;48.952;8.970;2023-09-30T01:04:43;15.50;99.90
16066;DHT22;8137;48.952;8.970;2023-09-30T01:07:09;15.50;99.90
16066;DHT22;8137;48.952;8.970;2023-09-30T01:09:35;15.50;99.90
16066;DHT22;8137;48.952;8.970;2023-09-30T01:12:02;15.50;99.90
16066;DHT22;8137;48.952;8.970;2023-09-30T01:14:30;15.50;99.90
16066;DHT22;8137;48.952;8.970;2023-09-30T01:16:56;15.50;99.90
16066;DHT22;8137;48.952;8.970;2023-09-30T01:19:22;15.50;99.90
16066;DHT22;8137;48.952;8.970;2023-09-30T01:21:59;15.60;99.90
16066;DHT22;8137;48.952;8.970;2023-09-30T01:24:26;15.60;99.90
16066;DHT22;8137;48.952;8.970;2023-09-30T01:26:52;15.60;99.90
16066;DHT22;8137;48.952;8.970;2023-09-30T01:29:18;15.70;99.90
16066;DHT22;8137;48.952;8.970;2023-09-30T01:31:44;15.70;99.90
16066;DHT22;8137;48.952;8.970;2023-09-30T01:34:14;15.70;99.90
16066;DHT22;8137;48.952;8.970;2023-09-30T01:36:41;15.80;99.90
16066;DHT22;8137;48.952;8.970;2023-09-30T01:39:06;15.70;99.90
16066;DHT22;8137;48.952;8.970;2023-09-30T01:41:32;15.70;99.90
16066;DHT22;8137;48.952;8.970;2023-09-30T01:43:58;15.60;99.90
16066;DHT22;8137;48.952;8.970;2023-09-30T01:46:24;15.50;99.90
16066;DHT22;8137;48.952;8.970;2023-09-30T01:48:49;15.40;99.90
16066;DHT22;8137;48.952;8.970;2023-09-30T01:51:15;15.40;99.90
16066;DHT22;8137;48.952;8.970;2023-09-30T01:53:41;15.30;99.90
16066;DHT22;8137;48.952;8.970;2023-09-30T01:56:07;15.30;99.90
16066;DHT22;8137;48.952;8.970;2023-09-30T01:58:33;15.20;99.90
16066;DHT22;8137;48.952;8.970;2023-09-30T02:01:03;15.20;99.90
16066;DHT22;8137;48.952;8.970;2023-09-30T02:03:28;15.10;99.90
16066;DHT22;8137;48.952;8.970;2023-09-30T02:05:55;15.10;99.90
16066;DHT22;8137;48.952;8.970;2023-09-30T02:08:21;15.00;99.90
16066;DHT22;8137;48.952;8.970;2023-09-30T02:10:48;15.00;99.90
16066;DHT22;8137;48.952;8.970;2023-09-30T02:13:13;14.90;99.90
16066;DHT22;8137;48.952;8.970;2023-09-30T02:15:42;14.90;99.90
16066;DHT22;8137;48.952;8.970;2023-09-30T02:18:08;14.90;99.90
16066;DHT22;8137;48.952;8.970;2023-09-30T02:20:35;14.80;99.90
16066;DHT22;8137;48.952;8.970;2023-09-30T02:23:01;14.80;99.90
16066;DHT22;8137;48.952;8.970;2023-09-30T02:25:27;14.80;99.90
16066;DHT22;8137;48.952;8.970;2023-09-30T02:27:54;14.70;99.90
16066;DHT22;8137;48.952;8.970;2023-09-30T02:30:19;14.70;99.90
16066;DHT22;8137;48.952;8.970;2023-09-30T02:32:46;14.80;99.90
16066;DHT22;8137;48.952;8.970;2023-09-30T02:35:12;14.80;99.90
16066;DHT22;8137;48.952;8.970;2023-09-30T02:37:40;14.80;99.90
16066;DHT22;8137;48.952;8.970;2023-09-30T02:40:07;14.70;99.90
16066;DHT22;8137;48.952;8.970;2023-09-30T02:42:38;14.80;99.90
16066;DHT22;8137;48.952;8.970;2023-09-30T02:45:05;14.80;99.90
16066;DHT22;8137;48.952;8.970;2023-09-30T02:47:32;14.80;99.90
16066;DHT22;8137;48.952;8.970;2023-09-30T02:49:58;14.80;99.90
16066;DHT22;8137;48.952;8.970;2023-09-30T02:52:24;14.80;99.90
16066;DHT22;8137;48.952;8.970;2023-09-30T02:54:50;14.80;99.90
16066;DHT22;8137;48.952;8.970;2023-09-30T02:57:15;14.80;99.90
16066;DHT22;8137;48.952;8.970;2023-09-30T02:59:41;14.90;99.90
16066;DHT22;8137;48.952;8.970;2023-09-30T03:02:07;14.90;99.90
16066;DHT22;8137;48.952;8.970;2023-09-30T03:04:33;14.90;99.90
16066;DHT22;8137;48.952;8.970;2023-09-30T03:06:59;14.90;99.90
16066;DHT22;8137;48.952;8.970;2023-09-30T03:09:25;14.90;99.90
16066;DHT22;8137;48.952;8.970;2023-09-30T03:11:51;14.90;99.90
16066;DHT22;8137;48.952;8.970;2023-09-30T03:14:17;14.90;99.90
16066;DHT22;8137;48.952;8.970;2023-09-30T03:16:42;14.90;99.90
16066;DHT22;8137;48.952;8.970;2023-09-30T03:19:10;14.90;99.90
16066;DHT22;8137;48.952;8.970;2023-09-30T03:21:37;14.90;99.90
16066;DHT22;8137;48.952;8.970;2023-09-30T03:24:03;14.90;99.90
16066;DHT22;8137;48.952;8.970;2023-09-30T03:26:29;14.90;99.90
16066;DHT22;8137;48.952;8.970;2023-09-30T03:28:55;14.90;99.90
16066;DHT22;8137;48.952;8.970;2023-09-30T03:31:21;14.90;99.90
16066;DHT22;8137;48.952;8.970;2023-09-30T03:33:50;14.90;99.90
16066;DHT22;8137;48.952;8.970;2023-09-30T03:36:20;14.90;99.90
16066;DHT22;8137;48.952;8.970;2023-09-30T03:38:45;14.90;99.90
16066;DHT22;8137;48.952;8.970;2023-09-30T03:41:11;14.90;99.90
16066;DHT22;8137;48.952;8.970;2023-09-30T03:43:39;14.90;99.90
16066;DHT22;8137;48.952;8.970;2023-09-30T03:46:07;14.90;99.90
16066;DHT22;8137;48.952;8.970;2023-09-30T03:48:33;14.90;99.90
16066;DHT22;8137;48.952;8.970;2023-09-30T03:53:43;14.90;99.90
16066;DHT22;8137;48.952;8.970;2023-09-30T03:56:09;14.90;99.90
16066;DHT22;8137;48.952;8.970;2023-09-30T03:58:42;14.90;99.90
16066;DHT22;8137;48.952;8.970;2023-09-30T04:01:09;14.90;99.90
16066;DHT22;8137;48.952;8.970;2023-09-30T04:03:40;14.90;99.90
16066;DHT22;8137;48.952;8.970;2023-09-30T04:06:06;14.90;99.90
16066;DHT22;8137;48.952;8.970;2023-09-30T04:08:32;14.90;99.90
16066;DHT22;8137;48.952;8.970;2023-09-30T04:10:59;14.90;99.90
16066;DHT22;8137;48.952;8.970;2023-09-30T04:13:25;14.80;99.90
16066;DHT22;8137;48.952;8.970;2023-09-30T04:15:51;14.80;99.90
16066;DHT22;8137;48.952;8.970;2023-09-30T04:18:17;14.80;99.90
16066;DHT22;8137;48.952;8.970;2023-09-30T04:20:45;14.80;99.90
16066;DHT22;8137;48.952;8.970;2023-09-30T04:23:12;14.80;99.90
16066;DHT22;8137;48.952;8.970;2023-09-30T04:25:38;14.80;99.90
16066;DHT22;8137;48.952;8.970;2023-09-30T04:28:04;14.70;99.90
16066;DHT22;8137;48.952;8.970;2023-09-30T04:30:30;14.70;99.90
16066;DHT22;8137;48.952;8.970;2023-09-30T04:33:00;14.70;99.90
16066;DHT22;8137;48.952;8.970;2023-09-30T04:35:26;14.70;99.90
16066;DHT22;8137;48.952;8.970;2023-09-30T04:37:52;14.60;99.90
16066;DHT22;8137;48.952;8.970;2023-09-30T04:40:18;14.60;99.90
16066;DHT22;8137;48.952;8.970;2023-09-30T04:42:47;14.60;99.90
16066;DHT22;8137;48.952;8.970;2023-09-30T04:45:14;14.60;99.90
16066;DHT22;8137;48.952;8.970;2023-09-30T04:47:45;14.50;99.90
16066;DHT22;8137;48.952;8.970;2023-09-30T04:50:11;14.50;99.90
16066;DHT22;8137;48.952;8.970;2023-09-30T04:52:38;14.50;99.90
16066;DHT22;8137;48.952;8.970;2023-09-30T04:55:06;14.40;99.90
16066;DHT22;8137;48.952;8.970;2023-09-30T04:57:32;14.40;99.90
16066;DHT22;8137;48.952;8.970;2023-09-30T04:59:58;14.40;99.90
16066;DHT22;8137;48.952;8.970;2023-09-30T05:02:24;14.40;99.90
16066;DHT22;8137;48.952;8.970;2023-09-30T05:04:50;14.40;99.90
16066;DHT22;8137;48.952;8.970;2023-09-30T05:07:16;14.30;99.90
16066;DHT22;8137;48.952;8.970;2023-09-30T05:09:41;14.30;99.90
16066;DHT22;8137;48.952;8.970;2023-09-30T05:12:08;14.20;99.90
16066;DHT22;8137;48.952;8.970;2023-09-30T05:14:34;14.20;99.90
16066;DHT22;8137;48.952;8.970;2023-09-30T05:17:00;14.10;99.90
16066;DHT22;8137;48.952;8.970;2023-09-30T05:19:26;14.10;99.90
16066;DHT22;8137;48.952;8.970;2023-09-30T05:21:52;14.10;99.90
16066;DHT22;8137;48.952;8.970;2023-09-30T05:24:17;14.00;99.90
16066;DHT22;8137;48.952;8.970;2023-09-30T05:26:46;14.10;99.90
16066;DHT22;8137;48.952;8.970;2023-09-30T05:29:12;14.10;99.90
16066;DHT22;8137;48.952;8.970;2023-09-30T05:31:38;14.10;99.90
16066;DHT22;8137;48.952;8.970;2023-09-30T05:34:04;14.10;99.90
16066;DHT22;8137;48.952;8.970;2023-09-30T05:36:30;14.10;99.90
16066;DHT22;8137;48.952;8.970;2023-09-30T05:38:55;14.10;99.90
16066;DHT22;8137;48.952;8.970;2023-09-30T05:41:21;14.10;99.90
16066;DHT22;8137;48.952;8.970;2023-09-30T05:43:47;14.10;99.90
16066;DHT22;8137;48.952;8.970;2023-09-30T05:46:13;14.20;99.90
16066;DHT22;8137;48.952;8.970;2023-09-30T05:48:38;14.20;99.90
16066;DHT22;8137;48.952;8.970;2023-09-30T05:51:07;14.20;99.90
16066;DHT22;8137;48.952;8.970;2023-09-30T05:53:32;14.20;99.90
16066;DHT22;8137;48.952;8.970;2023-09-30T05:55:59;14.10;99.90
16066;DHT22;8137;48.952;8.970;2023-09-30T05:58:25;14.10;99.90
16066;DHT22;8137;48.952;8.970;2023-09-30T06:00:54;14.10;99.90
16066;DHT22;8137;48.952;8.970;2023-09-30T06:03:20;14.10;99.90
16066;DHT22;8137;48.952;8.970;2023-09-30T06:05:48;14.20;99.90
16066;DHT22;8137;48.952;8.970;2023-09-30T06:08:14;14.20;99.90
16066;DHT22;8137;48.952;8.970;2023-09-30T06:10:41;14.20;99.90
16066;DHT22;8137;48.952;8.970;2023-09-30T06:13:09;14.30;99.90
16066;DHT22;8137;48.952;8.970;2023-09-30T06:15:41;14.40;99.90
16066;DHT22;8137;48.952;8.970;2023-09-30T06:18:08;14.50;99.90
16066;DHT22;8137;48.952;8.970;2023-09-30T06:20:35;14.60;99.90
16066;DHT22;8137;48.952;8.970;2023-09-30T06:23:01;14.70;99.90
16066;DHT22;8137;48.952;8.970;2023-09-30T06:25:27;14.70;99.90
16066;DHT22;8137;48.952;8.970;2023-09-30T06:27:53;14.70;99.90
16066;DHT22;8137;48.952;8.970;2023-09-30T06:30:23;14.80;99.90
16066;DHT22;8137;48.952;8.970;2023-09-30T06:32:58;14.80;99.90
16066;DHT22;8137;48.952;8.970;2023-09-30T06:35:26;14.90;99.90
16066;DHT22;8137;48.952;8.970;2023-09-30T06:37:52;14.90;99.90
16066;DHT22;8137;48.952;8.970;2023-09-30T06:40:17;15.00;99.90
16066;DHT22;8137;48.952;8.970;2023-09-30T06:42:44;15.10;99.90
16066;DHT22;8137;48.952;8.970;2023-09-30T06:45:10;15.20;99.90
16066;DHT22;8137;48.952;8.970;2023-09-30T06:47:38;15.30;99.90
16066;DHT22;8137;48.952;8.970;2023-09-30T06:50:09;15.40;99.90
16066;DHT22;8137;48.952;8.970;2023-09-30T06:52:35;15.50;99.90
16066;DHT22;8137;48.952;8.970;2023-09-30T06:55:05;15.60;99.90
16066;DHT22;8137;48.952;8.970;2023-09-30T06:57:35;15.60;99.90
16066;DHT22;8137;48.952;8.970;2023-09-30T07:00:04;15.70;99.90
16066;DHT22;8137;48.952;8.970;2023-09-30T07:02:33;15.80;99.90
16066;DHT22;8137;48.952;8.970;2023-09-30T07:04:58;15.90;99.90
16066;DHT22;8137;48.952;8.970;2023-09-30T07:07:24;16.10;99.90
16066;DHT22;8137;48.952;8.970;2023-09-30T07:09:50;16.10;99.90
16066;DHT22;8137;48.952;8.970;2023-09-30T07:12:15;16.20;99.90
16066;DHT22;8137;48.952;8.970;2023-09-30T07:14:41;16.40;99.90
16066;DHT22;8137;48.952;8.970;2023-09-30T07:17:06;16.50;99.90
16066;DHT22;8137;48.952;8.970;2023-09-30T07:19:33;16.60;99.90
16066;DHT22;8137;48.952;8.970;2023-09-30T07:21:58;16.70;99.90
16066;DHT22;8137;48.952;8.970;2023-09-30T07:24:24;16.80;99.90
16066;DHT22;8137;48.952;8.970;2023-09-30T07:26:50;16.90;99.90
16066;DHT22;8137;48.952;8.970;2023-09-30T07:29:16;17.00;99.90
16066;DHT22;8137;48.952;8.970;2023-09-30T07:31:42;17.10;99.90
16066;DHT22;8137;48.952;8.970;2023-09-30T07:34:07;17.20;99.90
16066;DHT22;8137;48.952;8.970;2023-09-30T07:36:33;17.20;99.90
16066;DHT22;8137;48.952;8.970;2023-09-30T07:38:58;17.20;99.90
16066;DHT22;8137;48.952;8.970;2023-09-30T07:41:26;17.30;99.90
16066;DHT22;8137;48.952;8.970;2023-09-30T07:43:52;17.40;99.90
16066;DHT22;8137;48.952;8.970;2023-09-30T07:46:17;17.30;99.90
16066;DHT22;8137;48.952;8.970;2023-09-30T07:48:43;17.30;99.90
16066;DHT22;8137;48.952;8.970;2023-09-30T07:51:09;17.40;99.90
16066;DHT22;8137;48.952;8.970;2023-09-30T07:53:38;17.40;99.90
16066;DHT22;8137;48.952;8.970;2023-09-30T07:56:05;17.40;99.90
16066;DHT22;8137;48.952;8.970;2023-09-30T07:58:31;17.60;99.90
16066;DHT22;8137;48.952;8.970;2023-09-30T08:00:58;17.80;99.90
16066;DHT22;8137;48.952;8.970;2023-09-30T08:03:23;17.80;99.90
16066;DHT22;8137;48.952;8.970;2023-09-30T08:05:49;17.90;99.90
16066;DHT22;8137;48.952;8.970;2023-09-30T08:08:16;18.10;99.90
16066;DHT22;8137;48.952;8.970;2023-09-30T08:10:42;18.20;99.90
16066;DHT22;8137;48.952;8.970;2023-09-30T08:13:08;18.50;99.90
16066;DHT22;8137;48.952;8.970;2023-09-30T08:15:35;18.60;99.90
16066;DHT22;8137;48.952;8.970;2023-09-30T08:18:00;18.80;99.90
16066;DHT22;8137;48.952;8.970;2023-09-30T08:20:28;19.00;99.90
16066;DHT22;8137;48.952;8.970;2023-09-30T08:22:53;19.00;99.90
16066;DHT22;8137;48.952;8.970;2023-09-30T08:25:19;19.10;99.90
16066;DHT22;8137;48.952;8.970;2023-09-30T08:27:45;19.30;99.90
16066;DHT22;8137;48.952;8.970;2023-09-30T08:30:15;19.30;99.90
16066;DHT22;8137;48.952;8.970;2023-09-30T08:32:41;19.30;99.90
16066;DHT22;8137;48.952;8.970;2023-09-30T08:35:07;19.40;99.90
16066;DHT22;8137;48.952;8.970;2023-09-30T08:37:33;19.60;99.90
16066;DHT22;8137;48.952;8.970;2023-09-30T08:39:59;19.70;99.90
16066;DHT22;8137;48.952;8.970;2023-09-30T08:42:27;19.70;99.90
16066;DHT22;8137;48.952;8.970;2023-09-30T08:44:57;19.90;99.90
16066;DHT22;8137;48.952;8.970;2023-09-30T08:47:26;19.90;99.90
16066;DHT22;8137;48.952;8.970;2023-09-30T08:49:54;20.00;99.90
16066;DHT22;8137;48.952;8.970;2023-09-30T08:52:23;20.10;99.90
16066;DHT22;8137;48.952;8.970;2023-09-30T08:54:50;20.20;99.90
16066;DHT22;8137;48.952;8.970;2023-09-30T08:57:18;20.30;99.90
16066;DHT22;8137;48.952;8.970;2023-09-30T08:59:45;20.30;99.90
16066;DHT22;8137;48.952;8.970;2023-09-30T09:02:11;20.40;99.90
16066;DHT22;8137;48.952;8.970;2023-09-30T09:04:37;20.40;99.90
16066;DHT22;8137;48.952;8.970;2023-09-30T09:07:03;20.50;99.90
16066;DHT22;8137;48.952;8.970;2023-09-30T09:09:28;20.50;99.90
16066;DHT22;8137;48.952;8.970;2023-09-30T09:11:54;20.40;99.90
16066;DHT22;8137;48.952;8.970;2023-09-30T09:14:36;20.40;99.90
16066;DHT22;8137;48.952;8.970;2023-09-30T09:17:03;20.70;99.90
16066;DHT22;8137;48.952;8.970;2023-09-30T09:19:30;20.90;99.90
16066;DHT22;8137;48.952;8.970;2023-09-30T09:22:00;21.10;99.90
16066;DHT22;8137;48.952;8.970;2023-09-30T09:27:06;21.40;99.90
16066;DHT22;8137;48.952;8.970;2023-09-30T09:29:33;21.50;99.90
16066;DHT22;8137;48.952;8.970;2023-09-30T09:32:12;21.50;99.90
16066;DHT22;8137;48.952;8.970;2023-09-30T09:34:43;21.60;99.90
16066;DHT22;8137;48.952;8.970;2023-09-30T09:37:20;21.80;99.90
16066;DHT22;8137;48.952;8.970;2023-09-30T09:39:53;21.90;99.90
16066;DHT22;8137;48.952;8.970;2023-09-30T09:42:31;22.00;99.90
16066;DHT22;8137;48.952;8.970;2023-09-30T09:45:00;21.80;99.90
16066;DHT22;8137;48.952;8.970;2023-09-30T09:47:26;21.80;99.90
16066;DHT22;8137;48.952;8.970;2023-09-30T09:49:53;21.90;99.90
16066;DHT22;8137;48.952;8.970;2023-09-30T09:52:19;22.20;99.90
16066;DHT22;8137;48.952;8.970;2023-09-30T09:54:46;22.20;99.90
16066;DHT22;8137;48.952;8.970;2023-09-30T09:57:12;22.20;99.90
16066;DHT22;8137;48.952;8.970;2023-09-30T09:59:39;22.20;99.90
16066;DHT22;8137;48.952;8.970;2023-09-30T10:02:12;22.40;99.90
16066;DHT22;8137;48.952;8.970;2023-09-30T10:04:45;22.50;99.90
16066;DHT22;8137;48.952;8.970;2023-09-30T10:07:25;22.60;99.90
16066;DHT22;8137;48.952;8.970;2023-09-30T10:09:52;23.00;99.90
16066;DHT22;8137;48.952;8.970;2023-09-30T10:12:19;23.30;99.90
16066;DHT22;8137;48.952;8.970;2023-09-30T10:14:47;23.50;99.90
16066;DHT22;8137;48.952;8.970;2023-09-30T10:17:13;23.30;99.90
16066;DHT22;8137;48.952;8.970;2023-09-30T10:20:05;23.30;99.90
16066;DHT22;8137;48.952;8.970;2023-09-30T10:22:35;22.80;99.90
16066;DHT22;8137;48.952;8.970;2023-09-30T10:25:01;22.90;99.90
16066;DHT22;8137;48.952;8.970;2023-09-30T10:27:46;23.00;99.90
16066;DHT22;8137;48.952;8.970;2023-09-30T10:30:13;23.30;99.90
16066;DHT22;8137;48.952;8.970;2023-09-30T10:35:18;23.30;99.90
16066;DHT22;8137;48.952;8.970;2023-09-30T10:37:44;23.40;99.90
16066;DHT22;8137;48.952;8.970;2023-09-30T10:40:25;23.60;99.90
16066;DHT22;8137;48.952;8.970;2023-09-30T10:42:51;23.80;99.90
16066;DHT22;8137;48.952;8.970;2023-09-30T10:50:56;24.20;99.90
16066;DHT22;8137;48.952;8.970;2023-09-30T10:53:24;24.30;99.90
16066;DHT22;8137;48.952;8.970;2023-09-30T10:55:54;24.40;99.90
16066;DHT22;8137;48.952;8.970;2023-09-30T10:58:21;24.50;99.90
16066;DHT22;8137;48.952;8.970;2023-09-30T11:00:56;24.40;99.90
16066;DHT22;8137;48.952;8.970;2023-09-30T11:03:23;24.50;99.90
16066;DHT22;8137;48.952;8.970;2023-09-30T11:05:50;24.50;99.90
16066;DHT22;8137;48.952;8.970;2023-09-30T11:08:17;24.50;99.90
16066;DHT22;8137;48.952;8.970;2023-09-30T11:10:51;24.40;95.10
16066;DHT22;8137;48.952;8.970;2023-09-30T11:13:20;24.20;95.90
16066;DHT22;8137;48.952;8.970;2023-09-30T11:15:46;23.50;90.80
16066;DHT22;8137;48.952;8.970;2023-09-30T11:18:17;22.90;92.40
16066;DHT22;8137;48.952;8.970;2023-09-30T11:20:44;22.90;95.00
16066;DHT22;8137;48.952;8.970;2023-09-30T11:23:10;22.70;95.40
16066;DHT22;8137;48.952;8.970;2023-09-30T11:25:37;22.50;94.70
16066;DHT22;8137;48.952;8.970;2023-09-30T11:28:17;22.30;94.90
16066;DHT22;8137;48.952;8.970;2023-09-30T11:33:23;22.10;98.80
16066;DHT22;8137;48.952;8.970;2023-09-30T11:36:01;22.00;99.20
16066;DHT22;8137;48.952;8.970;2023-09-30T11:38:28;21.80;99.90
16066;DHT22;8137;48.952;8.970;2023-09-30T11:41:01;21.60;99.90
16066;DHT22;8137;48.952;8.970;2023-09-30T11:43:28;21.60;99.90
16066;DHT22;8137;48.952;8.970;2023-09-30T11:46:07;21.50;99.90
16066;DHT22;8137;48.952;8.970;2023-09-30T11:48:34;21.70;99.90
16066;DHT22;8137;48.952;8.970;2023-09-30T11:51:01;21.90;95.20
16066;DHT22;8137;48.952;8.970;2023-09-30T11:53:32;22.20;90.40
16066;DHT22;8137;48.952;8.970;2023-09-30T11:56:01;22.60;86.60
16066;DHT22;8137;48.952;8.970;2023-09-30T11:58:32;22.80;74.50
16066;DHT22;8137;48.952;8.970;2023-09-30T12:00:59;23.10;64.10
16066;DHT22;8137;48.952;8.970;2023-09-30T12:03:27;23.20;54.90
16066;DHT22;8137;48.952;8.970;2023-09-30T12:05:54;23.50;50.60
16066;DHT22;8137;48.952;8.970;2023-09-30T12:08:23;23.50;45.40
16066;DHT22;8137;48.952;8.970;2023-09-30T12:10:50;23.70;48.30
16066;DHT22;8137;48.952;8.970;2023-09-30T12:13:16;23.70;57.20
16066;DHT22;8137;48.952;8.970;2023-09-30T12:15:42;23.50;53.10
16066;DHT22;8137;48.952;8.970;2023-09-30T12:18:09;23.20;50.90
16066;DHT22;8137;48.952;8.970;2023-09-30T12:20:35;22.80;46.90
16066;DHT22;8137;48.952;8.970;2023-09-30T12:23:01;22.70;53.30
16066;DHT22;8137;48.952;8.970;2023-09-30T12:25:30;22.70;54.50
16066;DHT22;8137;48.952;8.970;2023-09-30T12:27:56;22.80;54.50
16066;DHT22;8137;48.952;8.970;2023-09-30T12:30:21;22.70;48.10
16066;DHT22;8137;48.952;8.970;2023-09-30T12:32:47;22.40;49.40
16066;DHT22;8137;48.952;8.970;2023-09-30T12:35:13;22.20;50.60
16066;DHT22;8137;48.952;8.970;2023-09-30T12:37:38;21.80;51.60
16066;DHT22;8137;48.952;8.970;2023-09-30T12:40:07;21.70;56.60
16066;DHT22;8137;48.952;8.970;2023-09-30T12:42:33;21.60;57.60
16066;DHT22;8137;48.952;8.970;2023-09-30T12:45:02;21.70;57.50
16066;DHT22;8137;48.952;8.970;2023-09-30T12:47:28;21.90;54.60
16066;DHT22;8137;48.952;8.970;2023-09-30T12:49:53;22.00;48.70
16066;DHT22;8137;48.952;8.970;2023-09-30T12:52:21;22.20;47.60
16066;DHT22;8137;48.952;8.970;2023-09-30T12:54:48;22.50;43.20
16066;DHT22;8137;48.952;8.970;2023-09-30T12:57:14;22.60;39.00
16066;DHT22;8137;48.952;8.970;2023-09-30T12:59:45;22.30;36.00
16066;DHT22;8137;48.952;8.970;2023-09-30T13:02:15;22.20;38.30
16066;DHT22;8137;48.952;8.970;2023-09-30T13:04:44;22.40;39.60
16066;DHT22;8137;48.952;8.970;2023-09-30T13:07:10;22.60;36.00
16066;DHT22;8137;48.952;8.970;2023-09-30T13:09:36;22.70;27.90
16066;DHT22;8137;48.952;8.970;2023-09-30T13:12:03;22.80;28.40
16066;DHT22;8137;48.952;8.970;2023-09-30T13:14:29;22.80;25.50
16066;DHT22;8137;48.952;8.970;2023-09-30T13:16:54;22.70;31.70
16066;DHT22;8137;48.952;8.970;2023-09-30T13:19:20;22.60;28.40
16066;DHT22;8137;48.952;8.970;2023-09-30T13:21:51;22.60;23.10
16066;DHT22;8137;48.952;8.970;2023-09-30T13:24:19;22.70;22.50
16066;DHT22;8137;48.952;8.970;2023-09-30T13:26:45;22.70;22.20
16066;DHT22;8137;48.952;8.970;2023-09-30T13:29:11;22.80;20.30
16066;DHT22;8137;48.952;8.970;2023-09-30T13:31:38;22.90;20.50
16066;DHT22;8137;48.952;8.970;2023-09-30T13:34:05;22.90;19.00
16066;DHT22;8137;48.952;8.970;2023-09-30T13:36:31;22.80;21.30
16066;DHT22;8137;48.952;8.970;2023-09-30T13:38:57;22.80;21.40
16066;DHT22;8137;48.952;8.970;2023-09-30T13:41:23;22.90;18.30
16066;DHT22;8137;48.952;8.970;2023-09-30T13:43:48;22.90;17.60
16066;DHT22;8137;48.952;8.970;2023-09-30T13:46:14;22.70;16.60
16066;DHT22;8137;48.952;8.970;2023-09-30T13:48:41;22.80;17.90
16066;DHT22;8137;48.952;8.970;2023-09-30T13:51:10;22.90;18.40
16066;DHT22;8137;48.952;8.970;2023-09-30T13:53:36;22.70;18.50
16066;DHT22;8137;48.952;8.970;2023-09-30T13:56:02;22.70;19.10
16066;DHT22;8137;48.952;8.970;2023-09-30T13:58:31;22.70;18.50
16066;DHT22;8137;48.952;8.970;2023-09-30T14:00:56;22.60;19.80
16066;DHT22;8137;48.952;8.970;2023-09-30T14:03:22;22.50;23.50
16066;DHT22;8137;48.952;8.970;2023-09-30T14:05:50;22.40;23.80
16066;DHT22;8137;48.952;8.970;2023-09-30T14:08:15;22.30;22.40
16066;DHT22;8137;48.952;8.970;2023-09-30T14:10:42;22.30;23.00
16066;DHT22;8137;48.952;8.970;2023-09-30T14:13:11;22.30;26.80
16066;DHT22;8137;48.952;8.970;2023-09-30T14:15:37;22.40;27.60
16066;DHT22;8137;48.952;8.970;2023-09-30T14:18:03;22.50;23.30
16066;DHT22;8137;48.952;8.970;2023-09-30T14:20:29;22.60;22.50
16066;DHT22;8137;48.952;8.970;2023-09-30T14:22:55;22.50;21.70
16066;DHT22;8137;48.952;8.970;2023-09-30T14:25:21;22.30;21.30
16066;DHT22;8137;48.952;8.970;2023-09-30T14:27:48;22.20;21.40
16066;DHT22;8137;48.952;8.970;2023-09-30T14:30:14;22.20;22.20
16066;DHT22;8137;48.952;8.970;2023-09-30T14:32:40;22.30;24.10
16066;DHT22;8137;48.952;8.970;2023-09-30T14:35:06;22.30;21.80
16066;DHT22;8137;48.952;8.970;2023-09-30T14:37:32;22.30;21.90
16066;DHT22;8137;48.952;8.970;2023-09-30T14:39:58;22.20;23.30
16066;DHT22;8137;48.952;8.970;2023-09-30T14:42:23;22.10;21.30
16066;DHT22;8137;48.952;8.970;2023-09-30T14:44:49;22.10;21.80
16066;DHT22;8137;48.952;8.970;2023-09-30T14:47:15;22.10;24.50
16066;DHT22;8137;48.952;8.970;2023-09-30T14:49:41;22.10;23.50
16066;DHT22;8137;48.952;8.970;2023-09-30T14:52:07;22.00;25.20
16066;DHT22;8137;48.952;8.970;2023-09-30T14:54:34;21.90;23.90
16066;DHT22;8137;48.952;8.970;2023-09-30T14:57:00;21.90;26.50
16066;DHT22;8137;48.952;8.970;2023-09-30T14:59:26;21.90;29.00
16066;DHT22;8137;48.952;8.970;2023-09-30T15:01:52;21.80;27.40
16066;DHT22;8137;48.952;8.970;2023-09-30T15:04:18;21.70;32.20
16066;DHT22;8137;48.952;8.970;2023-09-30T15:06:44;21.60;33.30
16066;DHT22;8137;48.952;8.970;2023-09-30T15:09:11;21.60;35.60
16066;DHT22;8137;48.952;8.970;2023-09-30T15:11:37;21.60;35.40
16066;DHT22;8137;48.952;8.970;2023-09-30T15:14:03;21.60;35.70
16066;DHT22;8137;48.952;8.970;2023-09-30T15:16:32;21.60;36.00
16066;DHT22;8137;48.952;8.970;2023-09-30T15:18:57;21.60;36.00
16066;DHT22;8137;48.952;8.970;2023-09-30T15:21:23;21.50;37.30
16066;DHT22;8137;48.952;8.970;2023-09-30T15:23:49;21.60;37.90
16066;DHT22;8137;48.952;8.970;2023-09-30T15:26:15;21.60;36.80
16066;DHT22;8137;48.952;8.970;2023-09-30T15:28:44;21.60;35.30
16066;DHT22;8137;48.952;8.970;2023-09-30T15:31:13;21.60;34.80
16066;DHT22;8137;48.952;8.970;2023-09-30T15:33:39;21.60;34.30
16066;DHT22;8137;48.952;8.970;2023-09-30T15:36:15;21.60;36.40
16066;DHT22;8137;48.952;8.970;2023-09-30T15:38:43;21.60;37.90
16066;DHT22;8137;48.952;8.970;2023-09-30T15:41:12;21.60;37.30
16066;DHT22;8137;48.952;8.970;2023-09-30T15:43:38;21.60;34.10
16066;DHT22;8137;48.952;8.970;2023-09-30T15:46:04;21.60;34.30
16066;DHT22;8137;48.952;8.970;2023-09-30T15:48:30;21.60;33.90
16066;DHT22;8137;48.952;8.970;2023-09-30T15:50:56;21.50;42.40
16066;DHT22;8137;48.952;8.970;2023-09-30T15:53:21;21.50;43.00
16066;DHT22;8137;48.952;8.970;2023-09-30T15:55:48;21.50;43.00
16066;DHT22;8137;48.952;8.970;2023-09-30T15:58:13;21.40;44.00
16066;DHT22;8137;48.952;8.970;2023-09-30T16:00:40;21.30;42.60